sensor_id;sensor_type;location;lat;lon;timestamp;P1;durP1;ratioP1;P2;durP2;ratioP2
42186;SDS011;27858;51.414;0.018;2022-09-09T04:02:15;9.40;;;2.93;;
42186;SDS011;27858;51.414;0.018;2022-09-09T04:04:41;5.43;;;1.80;;
42186;SDS011;27858;51.414;0.018;2022-09-09T04:07:08;5.20;;;2.13;;
42186;SDS011;27858;51.414;0.018;2022-09-09T04:09:35;9.93;;;3.17;;
42186;SDS011;27858;51.414;0.018;2022-09-09T04:12:02;2.95;;;1.60;;
42186;SDS011;27858;51.414;0.018;2022-09-09T04:14:29;6.63;;;2.15;;
42186;SDS011;27858;51.414;0.018;2022-09-09T04:16:56;7.75;;;2.20;;
42186;SDS011;27858;51.414;0.018;2022-09-09T04:19:23;6.10;;;2.30;;
42186;SDS011;27858;51.414;0.018;2022-09-09T04:21:50;6.63;;;2.30;;
42186;SDS011;27858;51.414;0.018;2022-09-09T04:24:19;7.05;;;2.33;;
42186;SDS011;27858;51.414;0.018;2022-09-09T04:26:47;4.75;;;1.45;;
42186;SDS011;27858;51.414;0.018;2022-09-09T04:29:14;5.05;;;2.45;;
42186;SDS011;27858;51.414;0.018;2022-09-09T04:31:41;11.50;;;2.72;;
42186;SDS011;27858;51.414;0.018;2022-09-09T04:34:09;8.95;;;2.45;;
42186;SDS011;27858;51.414;0.018;2022-09-09T04:36:36;6.13;;;2.42;;
42186;SDS011;27858;51.414;0.018;2022-09-09T04:39:06;5.50;;;2.08;;
42186;SDS011;27858;51.414;0.018;2022-09-09T04:41:33;4.22;;;1.90;;
42186;SDS011;27858;51.414;0.018;2022-09-09T04:44:01;5.85;;;2.03;;
42186;SDS011;27858;51.414;0.018;2022-09-09T04:46:28;2.58;;;1.80;;
42186;SDS011;27858;51.414;0.018;2022-09-09T04:48:55;6.10;;;2.28;;
42186;SDS011;27858;51.414;0.018;2022-09-09T04:51:22;2.97;;;1.92;;
42186;SDS011;27858;51.414;0.018;2022-09-09T04:53:48;8.25;;;2.38;;
42186;SDS011;27858;51.414;0.018;2022-09-09T04:56:17;5.85;;;2.17;;
42186;SDS011;27858;51.414;0.018;2022-09-09T04:58:44;5.18;;;2.13;;
42186;SDS011;27858;51.414;0.018;2022-09-09T05:01:12;5.32;;;1.90;;
42186;SDS011;27858;51.414;0.018;2022-09-09T05:03:41;5.38;;;2.15;;
42186;SDS011;27858;51.414;0.018;2022-09-09T05:06:09;5.85;;;2.70;;
42186;SDS011;27858;51.414;0.018;2022-09-09T05:08:38;6.38;;;2.03;;
42186;SDS011;27858;51.414;0.018;2022-09-09T05:13:55;4.57;;;2.03;;
42186;SDS011;27858;51.414;0.018;2022-09-09T05:16:23;6.72;;;1.95;;
42186;SDS011;27858;51.414;0.018;2022-09-09T05:18:50;5.55;;;2.13;;
42186;SDS011;27858;51.414;0.018;2022-09-09T05:21:18;9.05;;;2.28;;
42186;SDS011;27858;51.414;0.018;2022-09-09T05:23:47;6.45;;;1.70;;
42186;SDS011;27858;51.414;0.018;2022-09-09T05:26:15;7.60;;;3.50;;
42186;SDS011;27858;51.414;0.018;2022-09-09T05:28:44;8.15;;;2.20;;
42186;SDS011;27858;51.414;0.018;2022-09-09T05:31:12;5.05;;;2.67;;
42186;SDS011;27858;51.414;0.018;2022-09-09T05:33:43;5.43;;;2.25;;
42186;SDS011;27858;51.414;0.018;2022-09-09T05:36:13;8.13;;;3.80;;
42186;SDS011;27858;51.414;0.018;2022-09-09T05:38:41;5.28;;;2.65;;
42186;SDS011;27858;51.414;0.018;2022-09-09T05:41:09;10.13;;;2.47;;
42186;SDS011;27858;51.414;0.018;2022-09-09T05:43:37;5.53;;;2.97;;
42186;SDS011;27858;51.414;0.018;2022-09-09T05:46:18;6.10;;;3.00;;
42186;SDS011;27858;51.414;0.018;2022-09-09T05:48:59;7.05;;;3.85;;
42186;SDS011;27858;51.414;0.018;2022-09-09T05:53:58;6.15;;;2.63;;
42186;SDS011;27858;51.414;0.018;2022-09-09T05:56:26;6.60;;;2.75;;
42186;SDS011;27858;51.414;0.018;2022-09-09T05:58:57;7.30;;;3.50;;
42186;SDS011;27858;51.414;0.018;2022-09-09T06:01:33;7.53;;;3.00;;
42186;SDS011;27858;51.414;0.018;2022-09-09T06:04:02;6.18;;;3.55;;
42186;SDS011;27858;51.414;0.018;2022-09-09T06:06:30;11.75;;;3.42;;
42186;SDS011;27858;51.414;0.018;2022-09-09T06:09:03;7.47;;;3.35;;
42186;SDS011;27858;51.414;0.018;2022-09-09T06:11:36;7.88;;;4.22;;
42186;SDS011;27858;51.414;0.018;2022-09-09T06:14:05;8.73;;;2.80;;
42186;SDS011;27858;51.414;0.018;2022-09-09T06:16:32;10.27;;;4.13;;
42186;SDS011;27858;51.414;0.018;2022-09-09T06:18:59;6.47;;;3.50;;
42186;SDS011;27858;51.414;0.018;2022-09-09T06:21:30;10.05;;;3.90;;
42186;SDS011;27858;51.414;0.018;2022-09-09T06:24:03;11.43;;;3.88;;
42186;SDS011;27858;51.414;0.018;2022-09-09T06:26:32;6.63;;;3.20;;
42186;SDS011;27858;51.414;0.018;2022-09-09T06:29:00;8.93;;;3.08;;
42186;SDS011;27858;51.414;0.018;2022-09-09T06:31:30;8.13;;;3.28;;
42186;SDS011;27858;51.414;0.018;2022-09-09T06:34:00;9.25;;;3.10;;
42186;SDS011;27858;51.414;0.018;2022-09-09T06:36:29;9.82;;;4.10;;
42186;SDS011;27858;51.414;0.018;2022-09-09T06:38:57;16.80;;;3.35;;
42186;SDS011;27858;51.414;0.018;2022-09-09T06:41:28;10.82;;;3.67;;
42186;SDS011;27858;51.414;0.018;2022-09-09T06:43:56;5.60;;;3.17;;
42186;SDS011;27858;51.414;0.018;2022-09-09T06:46:24;12.85;;;4.18;;
42186;SDS011;27858;51.414;0.018;2022-09-09T06:48:54;17.77;;;4.88;;
42186;SDS011;27858;51.414;0.018;2022-09-09T06:51:22;13.15;;;4.43;;
42186;SDS011;27858;51.414;0.018;2022-09-09T06:53:51;9.05;;;3.50;;
42186;SDS011;27858;51.414;0.018;2022-09-09T06:56:24;8.40;;;2.75;;
42186;SDS011;27858;51.414;0.018;2022-09-09T06:58:57;7.03;;;2.97;;
42186;SDS011;27858;51.414;0.018;2022-09-09T07:01:27;6.28;;;2.67;;
42186;SDS011;27858;51.414;0.018;2022-09-09T07:03:57;5.18;;;3.22;;
42186;SDS011;27858;51.414;0.018;2022-09-09T07:06:29;5.70;;;2.97;;
42186;SDS011;27858;51.414;0.018;2022-09-09T07:08:58;5.75;;;3.10;;
42186;SDS011;27858;51.414;0.018;2022-09-09T07:11:37;9.60;;;3.08;;
42186;SDS011;27858;51.414;0.018;2022-09-09T07:14:05;6.95;;;3.50;;
42186;SDS011;27858;51.414;0.018;2022-09-09T07:16:33;6.50;;;2.80;;
42186;SDS011;27858;51.414;0.018;2022-09-09T07:19:03;16.95;;;3.03;;
42186;SDS011;27858;51.414;0.018;2022-09-09T07:21:30;5.53;;;2.45;;
42186;SDS011;27858;51.414;0.018;2022-09-09T07:23:59;3.97;;;2.20;;
42186;SDS011;27858;51.414;0.018;2022-09-09T07:26:27;4.50;;;2.05;;
42186;SDS011;27858;51.414;0.018;2022-09-09T07:28:55;5.80;;;2.47;;
42186;SDS011;27858;51.414;0.018;2022-09-09T07:31:27;3.30;;;2.35;;
42186;SDS011;27858;51.414;0.018;2022-09-09T07:33:57;4.53;;;2.28;;
42186;SDS011;27858;51.414;0.018;2022-09-09T07:36:29;7.03;;;2.50;;
42186;SDS011;27858;51.414;0.018;2022-09-09T07:39:00;4.78;;;2.17;;
42186;SDS011;27858;51.414;0.018;2022-09-09T07:41:42;4.93;;;2.15;;
42186;SDS011;27858;51.414;0.018;2022-09-09T07:44:11;6.80;;;3.00;;
42186;SDS011;27858;51.414;0.018;2022-09-09T07:46:40;4.28;;;2.00;;
42186;SDS011;27858;51.414;0.018;2022-09-09T07:49:08;3.85;;;2.42;;
42186;SDS011;27858;51.414;0.018;2022-09-09T07:51:37;6.47;;;2.25;;
42186;SDS011;27858;51.414;0.018;2022-09-09T07:54:05;4.35;;;2.45;;
42186;SDS011;27858;51.414;0.018;2022-09-09T07:56:35;4.97;;;2.95;;
42186;SDS011;27858;51.414;0.018;2022-09-09T07:59:05;6.72;;;3.00;;
42186;SDS011;27858;51.414;0.018;2022-09-09T08:01:37;7.03;;;2.85;;
42186;SDS011;27858;51.414;0.018;2022-09-09T08:04:07;4.35;;;2.65;;
42186;SDS011;27858;51.414;0.018;2022-09-09T08:06:51;4.88;;;2.25;;
42186;SDS011;27858;51.414;0.018;2022-09-09T08:09:20;5.28;;;2.42;;
42186;SDS011;27858;51.414;0.018;2022-09-09T08:11:47;7.63;;;1.85;;
42186;SDS011;27858;51.414;0.018;2022-09-09T08:14:14;2.90;;;1.92;;
42186;SDS011;27858;51.414;0.018;2022-09-09T08:16:43;4.00;;;2.35;;
42186;SDS011;27858;51.414;0.018;2022-09-09T08:19:11;4.05;;;2.45;;
42186;SDS011;27858;51.414;0.018;2022-09-09T08:21:39;8.70;;;2.40;;
42186;SDS011;27858;51.414;0.018;2022-09-09T08:24:07;7.18;;;2.33;;
42186;SDS011;27858;51.414;0.018;2022-09-09T08:26:37;3.97;;;2.55;;
42186;SDS011;27858;51.414;0.018;2022-09-09T08:29:17;5.40;;;2.47;;
42186;SDS011;27858;51.414;0.018;2022-09-09T08:31:45;6.68;;;2.28;;
42186;SDS011;27858;51.414;0.018;2022-09-09T08:34:15;3.90;;;2.47;;
42186;SDS011;27858;51.414;0.018;2022-09-09T08:36:46;3.83;;;2.00;;
42186;SDS011;27858;51.414;0.018;2022-09-09T08:39:15;3.17;;;2.03;;
42186;SDS011;27858;51.414;0.018;2022-09-09T08:50:18;10.60;;;3.45;;
42186;SDS011;27858;51.414;0.018;2022-09-09T08:58:19;7.07;;;3.92;;
42186;SDS011;27858;51.414;0.018;2022-09-09T09:03:48;6.53;;;3.90;;
42186;SDS011;27858;51.414;0.018;2022-09-09T09:11:35;2.97;;;2.50;;
42186;SDS011;27858;51.414;0.018;2022-09-09T09:14:21;3.63;;;2.90;;
42186;SDS011;27858;51.414;0.018;2022-09-09T09:16:58;4.63;;;3.05;;
42186;SDS011;27858;51.414;0.018;2022-09-09T09:19:31;5.05;;;2.83;;
42186;SDS011;27858;51.414;0.018;2022-09-09T09:27:35;4.28;;;3.10;;
42186;SDS011;27858;51.414;0.018;2022-09-09T09:30:11;3.58;;;3.13;;
42186;SDS011;27858;51.414;0.018;2022-09-09T09:33:00;5.55;;;3.15;;
42186;SDS011;27858;51.414;0.018;2022-09-09T09:35:44;4.32;;;2.78;;
42186;SDS011;27858;51.414;0.018;2022-09-09T09:38:17;6.15;;;3.85;;
42186;SDS011;27858;51.414;0.018;2022-09-09T09:41:08;5.00;;;3.08;;
42186;SDS011;27858;51.414;0.018;2022-09-09T09:43:36;5.38;;;3.75;;
42186;SDS011;27858;51.414;0.018;2022-09-09T09:46:17;6.18;;;4.10;;
42186;SDS011;27858;51.414;0.018;2022-09-09T09:48:56;4.95;;;4.10;;
42186;SDS011;27858;51.414;0.018;2022-09-09T09:51:26;5.03;;;3.88;;
42186;SDS011;27858;51.414;0.018;2022-09-09T09:53:54;7.25;;;4.35;;
42186;SDS011;27858;51.414;0.018;2022-09-09T09:56:39;9.63;;;4.93;;
42186;SDS011;27858;51.414;0.018;2022-09-09T09:59:19;7.13;;;4.88;;
42186;SDS011;27858;51.414;0.018;2022-09-09T10:02:14;11.40;;;6.60;;
42186;SDS011;27858;51.414;0.018;2022-09-09T10:04:59;5.70;;;4.60;;
42186;SDS011;27858;51.414;0.018;2022-09-09T10:07:42;11.45;;;5.38;;
42186;SDS011;27858;51.414;0.018;2022-09-09T10:10:13;11.43;;;5.10;;
42186;SDS011;27858;51.414;0.018;2022-09-09T10:12:55;7.70;;;4.40;;
42186;SDS011;27858;51.414;0.018;2022-09-09T10:24:17;8.35;;;5.07;;
42186;SDS011;27858;51.414;0.018;2022-09-09T10:27:02;12.02;;;6.57;;
42186;SDS011;27858;51.414;0.018;2022-09-09T10:30:30;8.05;;;5.18;;
42186;SDS011;27858;51.414;0.018;2022-09-09T10:33:22;9.88;;;5.80;;
42186;SDS011;27858;51.414;0.018;2022-09-09T10:38:41;10.85;;;6.47;;
42186;SDS011;27858;51.414;0.018;2022-09-09T10:44:11;11.80;;;5.85;;
42186;SDS011;27858;51.414;0.018;2022-09-09T10:49:57;11.43;;;5.55;;
42186;SDS011;27858;51.414;0.018;2022-09-09T10:58:35;10.27;;;5.88;;
42186;SDS011;27858;51.414;0.018;2022-09-09T11:01:15;18.23;;;6.18;;
42186;SDS011;27858;51.414;0.018;2022-09-09T11:03:44;8.25;;;4.95;;
42186;SDS011;27858;51.414;0.018;2022-09-09T11:06:19;6.53;;;4.68;;
42186;SDS011;27858;51.414;0.018;2022-09-09T11:08:49;8.38;;;5.35;;
42186;SDS011;27858;51.414;0.018;2022-09-09T11:11:25;8.80;;;5.47;;
42186;SDS011;27858;51.414;0.018;2022-09-09T11:16:29;7.90;;;4.57;;
42186;SDS011;27858;51.414;0.018;2022-09-09T11:19:13;9.02;;;6.05;;
42186;SDS011;27858;51.414;0.018;2022-09-09T11:21:54;19.73;;;6.13;;
42186;SDS011;27858;51.414;0.018;2022-09-09T11:24:29;7.63;;;5.03;;
42186;SDS011;27858;51.414;0.018;2022-09-09T11:27:13;5.72;;;4.30;;
42186;SDS011;27858;51.414;0.018;2022-09-09T11:32:21;8.70;;;3.50;;
42186;SDS011;27858;51.414;0.018;2022-09-09T11:35:17;5.28;;;3.70;;
42186;SDS011;27858;51.414;0.018;2022-09-09T11:40:42;3.83;;;2.65;;
42186;SDS011;27858;51.414;0.018;2022-09-09T11:43:21;4.57;;;3.33;;
42186;SDS011;27858;51.414;0.018;2022-09-09T11:45:56;5.35;;;3.25;;
42186;SDS011;27858;51.414;0.018;2022-09-09T11:48:45;5.13;;;3.08;;
42186;SDS011;27858;51.414;0.018;2022-09-09T11:51:33;6.18;;;3.25;;
42186;SDS011;27858;51.414;0.018;2022-09-09T11:54:50;6.40;;;3.03;;
42186;SDS011;27858;51.414;0.018;2022-09-09T11:56:59;4.55;;;3.65;;
42186;SDS011;27858;51.414;0.018;2022-09-09T11:59:31;3.45;;;3.10;;
42186;SDS011;27858;51.414;0.018;2022-09-09T12:01:59;4.63;;;2.80;;
42186;SDS011;27858;51.414;0.018;2022-09-09T12:07:39;5.07;;;3.10;;
42186;SDS011;27858;51.414;0.018;2022-09-09T12:10:31;6.72;;;2.85;;
42186;SDS011;27858;51.414;0.018;2022-09-09T12:13:23;5.43;;;2.75;;
42186;SDS011;27858;51.414;0.018;2022-09-09T12:15:55;2.47;;;1.90;;
42186;SDS011;27858;51.414;0.018;2022-09-09T12:23:52;4.32;;;2.72;;
42186;SDS011;27858;51.414;0.018;2022-09-09T12:29:30;5.53;;;2.00;;
42186;SDS011;27858;51.414;0.018;2022-09-09T12:32:10;6.18;;;1.70;;
42186;SDS011;27858;51.414;0.018;2022-09-09T12:34:49;4.05;;;2.53;;
42186;SDS011;27858;51.414;0.018;2022-09-09T12:37:28;4.50;;;2.28;;
42186;SDS011;27858;51.414;0.018;2022-09-09T12:40:21;7.53;;;2.33;;
42186;SDS011;27858;51.414;0.018;2022-09-09T12:42:58;2.75;;;1.92;;
42186;SDS011;27858;51.414;0.018;2022-09-09T12:45:31;3.17;;;2.42;;
42186;SDS011;27858;51.414;0.018;2022-09-09T12:50:28;3.45;;;2.10;;
42186;SDS011;27858;51.414;0.018;2022-09-09T12:53:02;3.00;;;1.70;;
42186;SDS011;27858;51.414;0.018;2022-09-09T12:55:35;2.22;;;1.70;;
42186;SDS011;27858;51.414;0.018;2022-09-09T12:58:05;6.28;;;1.30;;
42186;SDS011;27858;51.414;0.018;2022-09-09T13:00:33;2.28;;;1.63;;
42186;SDS011;27858;51.414;0.018;2022-09-09T13:03:01;3.00;;;2.03;;
42186;SDS011;27858;51.414;0.018;2022-09-09T13:05:42;2.58;;;1.67;;
42186;SDS011;27858;51.414;0.018;2022-09-09T13:08:10;3.28;;;2.30;;
42186;SDS011;27858;51.414;0.018;2022-09-09T13:10:39;3.33;;;1.85;;
42186;SDS011;27858;51.414;0.018;2022-09-09T13:13:23;6.30;;;2.40;;
42186;SDS011;27858;51.414;0.018;2022-09-09T13:16:01;4.43;;;1.67;;
42186;SDS011;27858;51.414;0.018;2022-09-09T13:18:36;2.78;;;1.73;;
42186;SDS011;27858;51.414;0.018;2022-09-09T13:21:06;1.80;;;1.42;;
42186;SDS011;27858;51.414;0.018;2022-09-09T13:23:34;3.42;;;1.95;;
42186;SDS011;27858;51.414;0.018;2022-09-09T13:26:04;1.88;;;1.70;;
42186;SDS011;27858;51.414;0.018;2022-09-09T13:28:34;5.35;;;2.58;;
42186;SDS011;27858;51.414;0.018;2022-09-09T13:31:02;9.40;;;2.35;;
42186;SDS011;27858;51.414;0.018;2022-09-09T13:33:34;3.00;;;1.83;;
42186;SDS011;27858;51.414;0.018;2022-09-09T13:36:08;3.28;;;1.70;;
42186;SDS011;27858;51.414;0.018;2022-09-09T13:38:38;2.42;;;2.22;;
42186;SDS011;27858;51.414;0.018;2022-09-09T13:41:32;2.95;;;1.70;;
42186;SDS011;27858;51.414;0.018;2022-09-09T13:44:01;2.85;;;1.77;;
42186;SDS011;27858;51.414;0.018;2022-09-09T13:46:39;7.35;;;2.20;;
42186;SDS011;27858;51.414;0.018;2022-09-09T13:51:40;5.25;;;1.98;;
42186;SDS011;27858;51.414;0.018;2022-09-09T13:54:10;2.10;;;1.73;;
42186;SDS011;27858;51.414;0.018;2022-09-09T13:56:39;2.95;;;2.08;;
42186;SDS011;27858;51.414;0.018;2022-09-09T13:59:11;6.15;;;1.90;;
42186;SDS011;27858;51.414;0.018;2022-09-09T14:01:40;3.53;;;1.92;;
42186;SDS011;27858;51.414;0.018;2022-09-09T14:04:10;5.32;;;2.00;;
42186;SDS011;27858;51.414;0.018;2022-09-09T14:06:37;2.80;;;1.98;;
42186;SDS011;27858;51.414;0.018;2022-09-09T14:09:06;2.85;;;2.30;;
42186;SDS011;27858;51.414;0.018;2022-09-09T14:11:33;2.00;;;1.70;;
42186;SDS011;27858;51.414;0.018;2022-09-09T14:14:00;3.83;;;2.00;;
42186;SDS011;27858;51.414;0.018;2022-09-09T14:16:27;4.20;;;1.77;;
42186;SDS011;27858;51.414;0.018;2022-09-09T14:18:54;4.40;;;2.22;;
42186;SDS011;27858;51.414;0.018;2022-09-09T14:21:23;6.68;;;2.03;;
42186;SDS011;27858;51.414;0.018;2022-09-09T14:23:50;3.42;;;1.65;;
42186;SDS011;27858;51.414;0.018;2022-09-09T14:26:16;4.60;;;2.10;;
42186;SDS011;27858;51.414;0.018;2022-09-09T14:28:48;3.20;;;1.90;;
42186;SDS011;27858;51.414;0.018;2022-09-09T14:31:23;4.68;;;2.10;;
42186;SDS011;27858;51.414;0.018;2022-09-09T14:33:51;2.65;;;1.90;;
42186;SDS011;27858;51.414;0.018;2022-09-09T14:36:18;3.72;;;1.70;;
42186;SDS011;27858;51.414;0.018;2022-09-09T14:38:46;4.18;;;1.70;;
42186;SDS011;27858;51.414;0.018;2022-09-09T14:41:14;3.47;;;1.92;;
42186;SDS011;27858;51.414;0.018;2022-09-09T14:43:43;2.60;;;2.03;;
42186;SDS011;27858;51.414;0.018;2022-09-09T14:46:11;2.67;;;1.65;;
42186;SDS011;27858;51.414;0.018;2022-09-09T14:48:40;2.92;;;1.95;;
42186;SDS011;27858;51.414;0.018;2022-09-09T14:51:08;3.67;;;1.80;;
42186;SDS011;27858;51.414;0.018;2022-09-09T14:53:40;2.65;;;1.95;;
42186;SDS011;27858;51.414;0.018;2022-09-09T14:56:11;10.45;;;2.20;;
42186;SDS011;27858;51.414;0.018;2022-09-09T14:58:44;7.38;;;2.33;;
42186;SDS011;27858;51.414;0.018;2022-09-09T15:01:11;2.88;;;1.63;;
42186;SDS011;27858;51.414;0.018;2022-09-09T15:03:48;4.30;;;1.95;;
42186;SDS011;27858;51.414;0.018;2022-09-09T15:06:16;3.92;;;2.10;;
42186;SDS011;27858;51.414;0.018;2022-09-09T15:08:43;1.92;;;1.75;;
42186;SDS011;27858;51.414;0.018;2022-09-09T15:11:12;1.60;;;1.48;;
42186;SDS011;27858;51.414;0.018;2022-09-09T15:13:40;2.75;;;1.77;;
42186;SDS011;27858;51.414;0.018;2022-09-09T15:18:41;2.38;;;1.17;;
42186;SDS011;27858;51.414;0.018;2022-09-09T15:21:13;1.37;;;0.90;;
42186;SDS011;27858;51.414;0.018;2022-09-09T15:23:45;2.15;;;1.10;;
42186;SDS011;27858;51.414;0.018;2022-09-09T15:26:14;1.10;;;0.95;;
42186;SDS011;27858;51.414;0.018;2022-09-09T15:28:41;1.45;;;1.15;;
42186;SDS011;27858;51.414;0.018;2022-09-09T15:31:17;1.00;;;0.88;;
42186;SDS011;27858;51.414;0.018;2022-09-09T15:33:56;2.55;;;1.60;;
42186;SDS011;27858;51.414;0.018;2022-09-09T15:36:31;1.75;;;1.08;;
42186;SDS011;27858;51.414;0.018;2022-09-09T15:38:59;1.10;;;1.00;;
42186;SDS011;27858;51.414;0.018;2022-09-09T15:41:28;1.85;;;0.77;;
42186;SDS011;27858;51.414;0.018;2022-09-09T15:43:56;3.70;;;1.42;;
42186;SDS011;27858;51.414;0.018;2022-09-09T15:46:33;3.08;;;1.00;;
42186;SDS011;27858;51.414;0.018;2022-09-09T15:49:16;3.47;;;1.15;;
42186;SDS011;27858;51.414;0.018;2022-09-09T15:51:55;2.17;;;1.08;;
42186;SDS011;27858;51.414;0.018;2022-09-09T15:54:24;4.13;;;1.05;;
42186;SDS011;27858;51.414;0.018;2022-09-09T15:56:53;1.23;;;0.90;;
42186;SDS011;27858;51.414;0.018;2022-09-09T15:59:22;2.85;;;0.85;;
42186;SDS011;27858;51.414;0.018;2022-09-09T16:01:57;1.70;;;0.70;;
42186;SDS011;27858;51.414;0.018;2022-09-09T16:04:26;1.10;;;0.93;;
42186;SDS011;27858;51.414;0.018;2022-09-09T16:06:56;2.38;;;1.23;;
42186;SDS011;27858;51.414;0.018;2022-09-09T16:11:58;7.20;;;1.50;;
42186;SDS011;27858;51.414;0.018;2022-09-09T16:14:27;1.77;;;0.93;;
42186;SDS011;27858;51.414;0.018;2022-09-09T16:16:54;3.00;;;0.95;;
42186;SDS011;27858;51.414;0.018;2022-09-09T16:19:22;3.05;;;1.10;;
42186;SDS011;27858;51.414;0.018;2022-09-09T16:21:49;3.13;;;1.30;;
42186;SDS011;27858;51.414;0.018;2022-09-09T16:24:17;3.58;;;1.35;;
42186;SDS011;27858;51.414;0.018;2022-09-09T16:26:46;4.80;;;1.30;;
42186;SDS011;27858;51.414;0.018;2022-09-09T16:29:15;2.58;;;1.77;;
42186;SDS011;27858;51.414;0.018;2022-09-09T16:31:43;1.75;;;1.13;;
42186;SDS011;27858;51.414;0.018;2022-09-09T16:34:12;2.70;;;1.50;;
42186;SDS011;27858;51.414;0.018;2022-09-09T16:36:39;5.60;;;1.75;;
42186;SDS011;27858;51.414;0.018;2022-09-09T16:39:08;2.20;;;1.50;;
42186;SDS011;27858;51.414;0.018;2022-09-09T16:41:37;3.40;;;1.90;;
42186;SDS011;27858;51.414;0.018;2022-09-09T16:44:06;2.83;;;1.70;;
42186;SDS011;27858;51.414;0.018;2022-09-09T16:46:35;2.10;;;1.42;;
42186;SDS011;27858;51.414;0.018;2022-09-09T16:49:06;4.03;;;2.53;;
42186;SDS011;27858;51.414;0.018;2022-09-09T16:51:39;2.40;;;1.73;;
42186;SDS011;27858;51.414;0.018;2022-09-09T16:54:08;2.83;;;1.77;;
42186;SDS011;27858;51.414;0.018;2022-09-09T16:56:37;1.90;;;1.60;;
42186;SDS011;27858;51.414;0.018;2022-09-09T16:59:17;3.28;;;1.98;;
42186;SDS011;27858;51.414;0.018;2022-09-09T17:01:47;3.15;;;2.20;;
42186;SDS011;27858;51.414;0.018;2022-09-09T17:04:16;6.22;;;2.40;;
42186;SDS011;27858;51.414;0.018;2022-09-09T17:06:54;3.25;;;2.15;;
42186;SDS011;27858;51.414;0.018;2022-09-09T17:09:26;6.20;;;2.08;;
42186;SDS011;27858;51.414;0.018;2022-09-09T17:11:57;4.45;;;2.20;;
42186;SDS011;27858;51.414;0.018;2022-09-09T17:14:25;5.25;;;2.55;;
42186;SDS011;27858;51.414;0.018;2022-09-09T17:16:52;4.30;;;2.33;;
42186;SDS011;27858;51.414;0.018;2022-09-09T17:19:19;3.45;;;2.00;;
42186;SDS011;27858;51.414;0.018;2022-09-09T17:21:45;3.50;;;2.00;;
42186;SDS011;27858;51.414;0.018;2022-09-09T17:24:35;3.88;;;2.42;;
42186;SDS011;27858;51.414;0.018;2022-09-09T17:27:04;3.67;;;2.40;;
42186;SDS011;27858;51.414;0.018;2022-09-09T17:29:31;7.20;;;2.30;;
42186;SDS011;27858;51.414;0.018;2022-09-09T17:31:58;3.33;;;2.20;;
42186;SDS011;27858;51.414;0.018;2022-09-09T17:34:25;5.50;;;2.00;;
42186;SDS011;27858;51.414;0.018;2022-09-09T17:36:52;2.65;;;2.15;;
42186;SDS011;27858;51.414;0.018;2022-09-09T17:39:19;3.08;;;1.85;;
42186;SDS011;27858;51.414;0.018;2022-09-09T17:41:46;2.83;;;2.00;;
42186;SDS011;27858;51.414;0.018;2022-09-09T17:44:13;4.97;;;2.47;;
42186;SDS011;27858;51.414;0.018;2022-09-09T17:46:41;3.97;;;2.08;;
42186;SDS011;27858;51.414;0.018;2022-09-09T17:49:10;5.90;;;2.38;;
42186;SDS011;27858;51.414;0.018;2022-09-09T17:51:38;3.38;;;2.13;;
42186;SDS011;27858;51.414;0.018;2022-09-09T17:54:09;5.10;;;2.72;;
42186;SDS011;27858;51.414;0.018;2022-09-09T17:56:38;5.38;;;3.15;;
42186;SDS011;27858;51.414;0.018;2022-09-09T17:59:06;8.23;;;2.78;;
42186;SDS011;27858;51.414;0.018;2022-09-09T18:01:36;3.50;;;2.58;;
42186;SDS011;27858;51.414;0.018;2022-09-09T18:04:05;5.60;;;2.90;;
42186;SDS011;27858;51.414;0.018;2022-09-09T18:06:35;4.07;;;1.83;;
42186;SDS011;27858;51.414;0.018;2022-09-09T18:09:11;4.45;;;2.50;;
42186;SDS011;27858;51.414;0.018;2022-09-09T18:11:44;6.07;;;2.20;;
42186;SDS011;27858;51.414;0.018;2022-09-09T18:14:14;2.38;;;2.13;;
42186;SDS011;27858;51.414;0.018;2022-09-09T18:16:45;2.78;;;1.70;;
42186;SDS011;27858;51.414;0.018;2022-09-09T18:19:14;3.85;;;2.25;;
42186;SDS011;27858;51.414;0.018;2022-09-09T18:21:43;4.72;;;2.90;;
42186;SDS011;27858;51.414;0.018;2022-09-09T18:24:11;3.50;;;2.60;;
42186;SDS011;27858;51.414;0.018;2022-09-09T18:26:39;4.43;;;2.70;;
42186;SDS011;27858;51.414;0.018;2022-09-09T18:29:11;5.53;;;2.78;;
42186;SDS011;27858;51.414;0.018;2022-09-09T18:31:39;5.82;;;2.75;;
42186;SDS011;27858;51.414;0.018;2022-09-09T18:34:10;3.60;;;2.92;;
42186;SDS011;27858;51.414;0.018;2022-09-09T18:36:42;2.97;;;2.67;;
42186;SDS011;27858;51.414;0.018;2022-09-09T18:39:15;4.75;;;3.13;;
42186;SDS011;27858;51.414;0.018;2022-09-09T18:41:47;4.25;;;2.67;;
42186;SDS011;27858;51.414;0.018;2022-09-09T18:44:18;4.28;;;2.55;;
42186;SDS011;27858;51.414;0.018;2022-09-09T18:46:46;2.35;;;2.05;;
42186;SDS011;27858;51.414;0.018;2022-09-09T18:49:14;5.35;;;3.25;;
42186;SDS011;27858;51.414;0.018;2022-09-09T18:51:42;5.25;;;2.70;;
42186;SDS011;27858;51.414;0.018;2022-09-09T18:54:14;3.97;;;2.90;;
42186;SDS011;27858;51.414;0.018;2022-09-09T18:56:45;6.95;;;4.07;;
42186;SDS011;27858;51.414;0.018;2022-09-09T18:59:14;4.63;;;2.63;;
42186;SDS011;27858;51.414;0.018;2022-09-09T19:01:47;10.38;;;2.17;;
42186;SDS011;27858;51.414;0.018;2022-09-09T19:04:16;5.45;;;2.47;;
42186;SDS011;27858;51.414;0.018;2022-09-09T19:06:44;4.18;;;2.55;;
42186;SDS011;27858;51.414;0.018;2022-09-09T19:09:14;2.03;;;1.63;;
42186;SDS011;27858;51.414;0.018;2022-09-09T19:11:42;2.90;;;2.05;;
42186;SDS011;27858;51.414;0.018;2022-09-09T19:14:11;1.88;;;1.60;;
42186;SDS011;27858;51.414;0.018;2022-09-09T19:16:39;3.22;;;2.15;;
42186;SDS011;27858;51.414;0.018;2022-09-09T19:19:07;5.03;;;2.35;;
42186;SDS011;27858;51.414;0.018;2022-09-09T19:21:38;3.22;;;2.53;;
42186;SDS011;27858;51.414;0.018;2022-09-09T19:24:18;4.53;;;2.00;;
42186;SDS011;27858;51.414;0.018;2022-09-09T19:26:47;4.55;;;2.08;;
42186;SDS011;27858;51.414;0.018;2022-09-09T19:29:17;4.70;;;2.03;;
42186;SDS011;27858;51.414;0.018;2022-09-09T19:31:54;3.72;;;2.25;;
42186;SDS011;27858;51.414;0.018;2022-09-09T19:34:43;4.30;;;2.30;;
42186;SDS011;27858;51.414;0.018;2022-09-09T19:37:10;2.55;;;1.90;;
42186;SDS011;27858;51.414;0.018;2022-09-09T19:39:43;3.15;;;2.08;;
42186;SDS011;27858;51.414;0.018;2022-09-09T19:42:11;4.20;;;2.20;;
42186;SDS011;27858;51.414;0.018;2022-09-09T19:44:41;7.38;;;2.15;;
42186;SDS011;27858;51.414;0.018;2022-09-09T19:47:08;2.45;;;2.00;;
42186;SDS011;27858;51.414;0.018;2022-09-09T19:49:35;5.38;;;3.10;;
42186;SDS011;27858;51.414;0.018;2022-09-09T19:52:06;3.40;;;2.33;;
42186;SDS011;27858;51.414;0.018;2022-09-09T19:54:33;4.07;;;3.00;;
42186;SDS011;27858;51.414;0.018;2022-09-09T19:57:00;4.22;;;3.03;;
42186;SDS011;27858;51.414;0.018;2022-09-09T19:59:36;6.03;;;2.58;;
42186;SDS011;27858;51.414;0.018;2022-09-09T20:02:08;6.28;;;2.85;;
42186;SDS011;27858;51.414;0.018;2022-09-09T20:04:37;2.78;;;2.50;;
42186;SDS011;27858;51.414;0.018;2022-09-09T20:07:04;3.90;;;2.70;;
42186;SDS011;27858;51.414;0.018;2022-09-09T20:09:30;2.85;;;2.00;;
42186;SDS011;27858;51.414;0.018;2022-09-09T20:11:58;3.83;;;2.58;;
42186;SDS011;27858;51.414;0.018;2022-09-09T20:14:25;3.33;;;2.55;;
42186;SDS011;27858;51.414;0.018;2022-09-09T20:16:52;2.38;;;2.10;;
42186;SDS011;27858;51.414;0.018;2022-09-09T20:19:19;3.40;;;2.28;;
42186;SDS011;27858;51.414;0.018;2022-09-09T20:21:46;4.63;;;2.10;;
42186;SDS011;27858;51.414;0.018;2022-09-09T20:24:16;2.30;;;1.67;;
42186;SDS011;27858;51.414;0.018;2022-09-09T20:26:45;3.35;;;2.00;;
42186;SDS011;27858;51.414;0.018;2022-09-09T20:29:14;2.35;;;1.85;;
42186;SDS011;27858;51.414;0.018;2022-09-09T20:31:42;2.03;;;1.65;;
42186;SDS011;27858;51.414;0.018;2022-09-09T20:34:11;2.35;;;1.85;;
42186;SDS011;27858;51.414;0.018;2022-09-09T20:36:40;3.40;;;1.88;;
42186;SDS011;27858;51.414;0.018;2022-09-09T20:39:09;3.83;;;1.90;;
42186;SDS011;27858;51.414;0.018;2022-09-09T20:41:45;6.90;;;2.10;;